Time;durP1;ratioP1;P1;durP2;ratioP2;P2;SDS_P1;SDS_P2;PMS_P1;PMS_P2;Temp;Humidity;BMP_temperature;BMP_pressure;BME280_temperature;BME280_humidity;BME280_pressure;Samples;Min_cycle;Max_cycle;Signal;HPM_P1;HPM_P2
2022/05/28 00:01:17;;;;;;;0.40;0.20;;;11.60;99.90;;;;;;4920015;29;20420;-73
2022/05/28 00:03:45;;;;;;;0.40;0.30;;;11.60;99.90;;;;;;4921014;29;20397;-72
2022/05/28 00:06:18;;;;;;;1.10;0.90;;;11.60;99.90;;;;;;4929160;29;20400;-73
2022/05/28 00:08:44;;;;;;;0.40;0.30;;;11.60;99.90;;;;;;4936197;29;20395;-73
2022/05/28 00:11:19;;;;;;;0.40;0.20;;;11.50;99.90;;;;;;4934978;29;20395;-73
2022/05/28 00:13:45;;;;;;;0.60;0.60;;;11.50;99.90;;;;;;4936686;29;20423;-73
2022/05/28 00:16:12;;;;;;;0.40;0.30;;;11.40;99.90;;;;;;4930442;29;20403;-73
2022/05/28 00:18:40;;;;;;;0.40;0.20;;;11.40;99.90;;;;;;4933940;29;20466;-73
2022/05/28 00:21:07;;;;;;;0.40;0.20;;;11.50;99.90;;;;;;4925882;29;20408;-73
2022/05/28 00:23:33;;;;;;;0.40;0.20;;;11.40;99.90;;;;;;4916943;29;20397;-73
2022/05/28 00:25:58;;;;;;;0.40;0.20;;;11.60;99.90;;;;;;4918440;29;20448;-73
2022/05/28 00:28:24;;;;;;;0.40;0.30;;;11.50;99.90;;;;;;4917740;29;20427;-73
2022/05/28 00:30:49;;;;;;;0.40;0.20;;;11.50;99.90;;;;;;4925586;29;20876;-73
2022/05/28 00:33:16;;;;;;;0.40;0.20;;;11.40;99.90;;;;;;4925835;29;20431;-73
2022/05/28 00:35:42;;;;;;;0.40;0.20;;;11.40;99.90;;;;;;4917678;29;20413;-73
2022/05/28 00:38:08;;;;;;;0.60;0.60;;;11.40;99.90;;;;;;4916284;29;20886;-73
2022/05/28 00:40:34;;;;;;;0.40;0.20;;;11.40;99.90;;;;;;4916701;29;20405;-73
2022/05/28 00:43:02;;;;;;;0.40;0.30;;;11.30;99.90;;;;;;4919998;29;20420;-73
2022/05/28 00:45:30;;;;;;;0.40;0.30;;;11.30;99.90;;;;;;4918955;29;20429;-73
2022/05/28 00:47:58;;;;;;;0.70;0.60;;;11.40;99.90;;;;;;4919168;29;20451;-73
2022/05/28 00:50:25;;;;;;;0.40;0.20;;;11.40;99.90;;;;;;4924765;29;20745;-73
2022/05/28 00:52:52;;;;;;;0.60;0.60;;;11.50;99.90;;;;;;4927255;29;20487;-73
2022/05/28 00:55:19;;;;;;;0.70;0.50;;;11.50;99.90;;;;;;4918756;29;20416;-73
2022/05/28 00:57:46;;;;;;;0.40;0.20;;;11.50;99.90;;;;;;4923960;29;20415;-73
2022/05/28 01:00:20;;;;;;;0.40;0.20;;;11.50;99.90;;;;;;4934977;29;20416;-73
2022/05/28 01:02:57;;;;;;;0.40;0.30;;;11.70;99.90;;;;;;4916881;29;20412;-73
2022/05/28 01:05:48;;;;;;;0.40;0.30;;;11.80;99.90;;;;;;4918913;29;20413;-73
2022/05/28 01:08:27;;;;;;;0.40;0.20;;;11.80;99.90;;;;;;4929300;29;20408;-73
2022/05/28 01:10:52;;;;;;;0.40;0.30;;;11.90;99.90;;;;;;4934484;29;20474;-73
2022/05/28 01:13:35;;;;;;;0.40;0.20;;;11.90;99.90;;;;;;4935758;29;20892;-73
2022/05/28 01:16:12;;;;;;;0.40;0.30;;;11.90;99.90;;;;;;4932897;29;20773;-73
2022/05/28 01:19:03;;;;;;;0.40;0.20;;;11.90;99.90;;;;;;4926743;29;20424;-73
2022/05/28 01:21:47;;;;;;;0.40;0.20;;;12.00;99.90;;;;;;4896785;29;20428;-73
2022/05/28 01:24:33;;;;;;;0.40;0.20;;;12.10;99.90;;;;;;4916481;29;20922;-73
2022/05/28 01:27:02;;;;;;;0.40;0.30;;;12.10;99.90;;;;;;4925715;29;20435;-73
2022/05/28 01:29:45;;;;;;;0.40;0.20;;;12.20;99.90;;;;;;4915851;29;20393;-73
2022/05/28 01:32:13;;;;;;;0.60;0.60;;;12.30;99.90;;;;;;4930669;29;20419;-73
2022/05/28 01:34:40;;;;;;;0.40;0.20;;;12.20;99.90;;;;;;4932104;29;20461;-73
2022/05/28 01:37:06;;;;;;;0.40;0.20;;;12.30;99.90;;;;;;4924628;29;20440;-73
2022/05/28 01:39:33;;;;;;;0.40;0.20;;;12.20;99.90;;;;;;4923148;29;20776;-73
2022/05/28 01:42:01;;;;;;;0.40;0.30;;;12.10;99.90;;;;;;4933419;29;20415;-73
2022/05/28 01:44:28;;;;;;;0.40;0.20;;;12.30;99.90;;;;;;4927823;29;20403;-72
2022/05/28 01:46:55;;;;;;;0.40;0.20;;;12.40;99.90;;;;;;4928211;29;20429;-73
2022/05/28 01:49:22;;;;;;;0.40;0.20;;;12.30;99.90;;;;;;4916016;29;20397;-73
2022/05/28 01:51:55;;;;;;;0.40;0.20;;;12.40;99.90;;;;;;4933545;29;20469;-73
2022/05/28 01:54:25;;;;;;;0.40;0.20;;;12.30;99.90;;;;;;4930202;29;20448;-73
2022/05/28 01:56:53;;;;;;;0.50;0.50;;;12.20;99.90;;;;;;4920588;29;20469;-73
2022/05/28 01:59:33;;;;;;;0.40;0.40;;;12.10;99.90;;;;;;4930565;29;20968;-73
2022/05/28 02:02:00;;;;;;;0.40;0.20;;;12.20;99.90;;;;;;4923094;29;20391;-73
2022/05/28 02:04:28;;;;;;;0.40;0.30;;;12.10;99.90;;;;;;4914966;29;20886;-73
2022/05/28 02:06:53;;;;;;;0.40;0.20;;;12.00;99.90;;;;;;4928243;29;20904;-72
2022/05/28 02:09:27;;;;;;;0.40;0.20;;;12.30;99.90;;;;;;4927348;29;20435;-73
2022/05/28 02:12:11;;;;;;;0.40;0.30;;;12.20;99.90;;;;;;4929452;29;20399;-73
2022/05/28 02:14:55;;;;;;;0.40;0.30;;;12.30;99.90;;;;;;4917156;29;20918;-72
2022/05/28 02:17:32;;;;;;;0.40;0.20;;;12.30;99.90;;;;;;4916014;29;20401;-73
2022/05/28 02:20:02;;;;;;;0.40;0.20;;;12.40;99.90;;;;;;4934221;29;20387;-73
2022/05/28 02:22:51;;;;;;;0.70;0.50;;;12.40;99.90;;;;;;4929571;29;20899;-73
2022/05/28 02:25:33;;;;;;;0.80;0.80;;;12.30;99.90;;;;;;4932859;29;20440;-73
2022/05/28 02:28:02;;;;;;;0.40;0.20;;;12.50;99.90;;;;;;4932912;29;20416;-72
2022/05/28 02:30:28;;;;;;;0.80;0.80;;;12.30;99.90;;;;;;4932415;29;20399;-73
2022/05/28 02:33:05;;;;;;;0.40;0.20;;;12.30;99.90;;;;;;4934550;29;20446;-73
2022/05/28 02:35:32;;;;;;;0.40;0.20;;;12.50;99.90;;;;;;4920628;29;20436;-73
2022/05/28 02:37:58;;;;;;;0.40;0.20;;;12.50;99.90;;;;;;4915288;29;20409;-73
2022/05/28 02:40:24;;;;;;;0.40;0.20;;;12.50;99.90;;;;;;4916204;29;20854;-73
2022/05/28 02:42:49;;;;;;;0.40;0.20;;;12.50;99.90;;;;;;4916854;29;20451;-73
2022/05/28 02:45:15;;;;;;;0.40;0.20;;;12.40;99.90;;;;;;4934271;29;20398;-74
2022/05/28 02:47:41;;;;;;;0.40;0.20;;;12.40;99.90;;;;;;4933050;29;20403;-73
2022/05/28 02:50:09;;;;;;;0.40;0.20;;;12.40;99.90;;;;;;4932341;29;20420;-74
2022/05/28 02:52:35;;;;;;;0.40;0.40;;;12.40;99.90;;;;;;4921290;29;20415;-74
2022/05/28 02:55:01;;;;;;;0.40;0.20;;;12.40;99.90;;;;;;4914620;29;20405;-74
2022/05/28 02:57:27;;;;;;;0.40;0.30;;;12.40;99.90;;;;;;4917728;29;20405;-74
2022/05/28 02:59:52;;;;;;;0.40;0.20;;;12.40;99.90;;;;;;4933588;29;20877;-73
2022/05/28 03:02:18;;;;;;;0.40;0.20;;;12.40;99.90;;;;;;4933687;29;20410;-73
2022/05/28 03:04:44;;;;;;;0.40;0.20;;;12.40;99.90;;;;;;4933057;29;20387;-73
2022/05/28 03:07:09;;;;;;;0.40;0.20;;;12.40;99.90;;;;;;4928754;29;20422;-74
2022/05/28 03:09:35;;;;;;;0.40;0.20;;;12.40;99.90;;;;;;4931818;29;20439;-74
2022/05/28 03:12:01;;;;;;;0.40;0.20;;;12.60;99.90;;;;;;4933623;29;20486;-74
2022/05/28 03:14:26;;;;;;;0.40;0.20;;;12.40;99.90;;;;;;4928487;29;20405;-74
2022/05/28 03:16:53;;;;;;;0.40;0.40;;;12.40;99.90;;;;;;4918584;29;20397;-73
2022/05/28 03:19:18;;;;;;;0.40;0.20;;;12.40;99.90;;;;;;4934089;29;20392;-74
2022/05/28 03:21:44;;;;;;;0.40;0.20;;;12.40;99.90;;;;;;4919658;29;20397;-74
2022/05/28 03:24:10;;;;;;;0.50;0.50;;;12.40;99.90;;;;;;4914400;29;20420;-73
2022/05/28 03:26:36;;;;;;;0.40;0.20;;;12.50;99.90;;;;;;4914835;29;20409;-74
2022/05/28 03:29:03;;;;;;;0.40;0.30;;;12.40;99.90;;;;;;4931303;29;20400;-73
2022/05/28 03:31:29;;;;;;;0.40;0.20;;;12.60;99.90;;;;;;4931931;29;20411;-74
2022/05/28 03:33:56;;;;;;;0.50;0.50;;;12.60;99.90;;;;;;4933353;29;20423;-74
2022/05/28 03:36:22;;;;;;;0.40;0.20;;;12.40;99.90;;;;;;4933313;29;20410;-73
2022/05/28 03:38:48;;;;;;;0.40;0.20;;;12.20;99.90;;;;;;4918828;29;20405;-73
2022/05/28 03:41:13;;;;;;;0.40;0.20;;;12.20;99.90;;;;;;4914659;29;20404;-74
2022/05/28 03:43:39;;;;;;;0.40;0.20;;;12.40;99.90;;;;;;4913709;29;20405;-74
2022/05/28 03:46:05;;;;;;;0.70;0.70;;;12.40;99.90;;;;;;4924245;29;20464;-74
2022/05/28 03:48:33;;;;;;;0.40;0.20;;;12.20;99.90;;;;;;4915130;29;20408;-74
2022/05/28 03:50:58;;;;;;;0.40;0.20;;;12.40;99.90;;;;;;4920739;29;20400;-74
2022/05/28 03:53:24;;;;;;;0.40;0.20;;;12.50;99.90;;;;;;4933441;29;20467;-74
2022/05/28 03:55:50;;;;;;;0.40;0.20;;;12.40;99.90;;;;;;4917118;29;20555;-74
2022/05/28 03:58:16;;;;;;;0.40;0.40;;;12.40;99.90;;;;;;4915246;29;20496;-74
2022/05/28 04:00:42;;;;;;;0.40;0.20;;;12.50;99.90;;;;;;4913807;29;20397;-74
2022/05/28 04:03:08;;;;;;;0.40;0.20;;;12.40;99.90;;;;;;4897423;29;20776;-74
2022/05/28 04:05:36;;;;;;;0.40;0.20;;;12.40;99.90;;;;;;4913725;29;20397;-74
2022/05/28 04:08:02;;;;;;;0.40;0.40;;;12.50;99.90;;;;;;4925244;29;20401;-74
2022/05/28 04:10:28;;;;;;;0.50;0.50;;;12.70;99.90;;;;;;4914567;29;20424;-73
2022/05/28 04:12:53;;;;;;;0.40;0.20;;;12.60;99.90;;;;;;4913966;29;20428;-73
2022/05/28 04:15:19;;;;;;;0.40;0.20;;;12.40;99.90;;;;;;4913030;29;20400;-73
2022/05/28 04:17:44;;;;;;;0.40;0.20;;;12.40;99.90;;;;;;4918447;29;20884;-73
2022/05/28 04:20:13;;;;;;;0.40;0.20;;;12.50;99.90;;;;;;4930332;29;20450;-73
2022/05/28 04:22:38;;;;;;;0.40;0.20;;;12.80;99.90;;;;;;4913555;29;20405;-73
2022/05/28 04:25:05;;;;;;;0.40;0.20;;;12.90;99.90;;;;;;4915280;29;20416;-73
2022/05/28 04:27:31;;;;;;;0.40;0.20;;;12.90;99.90;;;;;;4929630;29;20418;-73
2022/05/28 04:29:59;;;;;;;1.30;0.80;;;13.00;99.90;;;;;;4928911;29;20857;-73
2022/05/28 04:32:25;;;;;;;0.40;0.20;;;13.00;99.90;;;;;;4932778;29;20427;-74
2022/05/28 04:34:50;;;;;;;0.40;0.20;;;12.90;99.90;;;;;;4931867;29;20506;-74
2022/05/28 04:37:16;;;;;;;0.40;0.20;;;12.90;99.90;;;;;;4914151;29;20433;-73
2022/05/28 04:39:41;;;;;;;0.60;0.60;;;13.00;99.90;;;;;;4923495;29;20405;-73
2022/05/28 04:42:07;;;;;;;0.40;0.20;;;13.10;99.90;;;;;;4915251;29;20803;-73
2022/05/28 04:44:33;;;;;;;0.40;0.20;;;13.10;99.90;;;;;;4935718;29;20467;-73
2022/05/28 04:46:59;;;;;;;0.40;0.20;;;13.00;99.90;;;;;;4931933;29;20793;-73
2022/05/28 04:49:24;;;;;;;0.60;0.60;;;13.10;99.90;;;;;;4917521;29;20406;-73
2022/05/28 04:51:50;;;;;;;0.40;0.20;;;13.10;99.90;;;;;;4946000;29;20559;-74
2022/05/28 04:54:15;;;;;;;0.60;0.60;;;13.00;99.90;;;;;;4934454;29;20419;-73
2022/05/28 04:56:41;;;;;;;0.40;0.20;;;13.10;99.90;;;;;;4933723;29;20396;-73
2022/05/28 04:59:07;;;;;;;0.40;0.30;;;13.00;99.90;;;;;;4920247;29;20463;-73
2022/05/28 05:01:34;;;;;;;0.40;0.30;;;13.00;99.90;;;;;;4917940;29;20413;-73
2022/05/28 05:03:59;;;;;;;0.40;0.20;;;13.20;99.90;;;;;;4916597;29;20393;-73
2022/05/28 05:06:25;;;;;;;0.40;0.20;;;13.20;99.90;;;;;;4918059;29;20901;-73
2022/05/28 05:08:51;;;;;;;0.40;0.20;;;13.30;99.90;;;;;;4916654;29;21191;-72
2022/05/28 05:11:16;;;;;;;0.40;0.20;;;13.00;99.90;;;;;;4929856;29;20403;-73
2022/05/28 05:13:42;;;;;;;0.40;0.20;;;13.00;99.90;;;;;;4935094;29;20494;-73
2022/05/28 05:16:13;;;;;;;0.40;0.20;;;13.10;99.90;;;;;;4921132;29;20409;-73
2022/05/28 05:18:39;;;;;;;0.90;0.90;;;13.00;99.90;;;;;;4916084;29;20416;-73
2022/05/28 05:21:05;;;;;;;0.40;0.20;;;13.00;99.90;;;;;;4927839;29;20399;-70
2022/05/28 05:23:30;;;;;;;0.40;0.20;;;12.90;99.90;;;;;;4935665;29;20404;-74
2022/05/28 05:25:56;;;;;;;0.40;0.20;;;12.90;99.90;;;;;;4925300;29;20455;-72
2022/05/28 05:28:22;;;;;;;0.40;0.20;;;12.90;99.90;;;;;;4916468;29;20394;-73
2022/05/28 05:30:48;;;;;;;0.40;0.20;;;12.90;99.90;;;;;;4916124;29;20739;-72
2022/05/28 05:33:14;;;;;;;0.40;0.20;;;12.80;99.90;;;;;;4916422;29;20888;-72
2022/05/28 05:35:40;;;;;;;0.50;0.50;;;12.80;99.90;;;;;;4915952;29;20440;-72
2022/05/28 05:38:06;;;;;;;0.40;0.20;;;12.80;99.90;;;;;;4919057;29;20740;-71
2022/05/28 05:40:34;;;;;;;0.70;0.70;;;12.80;99.90;;;;;;4928183;29;20433;-73
2022/05/28 05:42:59;;;;;;;0.60;0.60;;;12.80;99.90;;;;;;4934868;29;20430;-72
2022/05/28 05:45:25;;;;;;;0.50;0.50;;;12.70;99.90;;;;;;4935229;29;20861;-70
2022/05/28 05:47:51;;;;;;;0.40;0.30;;;12.70;99.90;;;;;;4934718;29;20984;-71
2022/05/28 05:50:16;;;;;;;0.40;0.20;;;12.60;99.90;;;;;;4930572;29;20496;-72
2022/05/28 05:52:42;;;;;;;0.40;0.30;;;12.60;99.90;;;;;;4914228;29;20448;-73
2022/05/28 05:55:08;;;;;;;0.40;0.20;;;12.60;99.90;;;;;;4915397;29;20419;-73
2022/05/28 05:57:34;;;;;;;0.40;0.20;;;12.60;99.90;;;;;;4919012;29;20423;-73
2022/05/28 05:59:59;;;;;;;0.40;0.20;;;12.60;99.90;;;;;;4933677;29;20388;-73
2022/05/28 06:02:25;;;;;;;0.40;0.20;;;12.60;99.90;;;;;;4932790;29;20490;-73
2022/05/28 06:04:50;;;;;;;0.40;0.40;;;12.60;99.90;;;;;;4933864;29;20483;-71
2022/05/28 06:07:17;;;;;;;0.80;0.80;;;12.70;99.90;;;;;;4925201;29;20419;-73
2022/05/28 06:09:42;;;;;;;0.40;0.30;;;12.70;99.90;;;;;;4927710;29;20410;-73
2022/05/28 06:12:08;;;;;;;0.40;0.20;;;12.90;99.90;;;;;;4918724;29;20473;-70
2022/05/28 06:14:34;;;;;;;0.40;0.20;;;13.00;99.90;;;;;;4930823;29;20861;-69
2022/05/28 06:17:00;;;;;;;0.40;0.20;;;12.90;99.90;;;;;;4934142;29;20451;-70
2022/05/28 06:19:25;;;;;;;0.40;0.20;;;13.00;99.90;;;;;;4935130;29;20403;-71
2022/05/28 06:21:51;;;;;;;0.40;0.20;;;13.10;99.90;;;;;;4928490;29;20415;-71
2022/05/28 06:24:17;;;;;;;0.40;0.30;;;13.10;99.90;;;;;;4928993;29;20872;-69
2022/05/28 06:26:42;;;;;;;0.40;0.20;;;13.10;99.90;;;;;;4925634;29;20412;-69
2022/05/28 06:29:08;;;;;;;0.40;0.20;;;13.20;99.90;;;;;;4928508;29;20471;-69
2022/05/28 06:31:33;;;;;;;0.40;0.20;;;13.20;99.90;;;;;;4930526;29;20903;-69
2022/05/28 06:33:59;;;;;;;0.40;0.20;;;13.30;99.90;;;;;;4930187;29;21003;-70
2022/05/28 06:36:25;;;;;;;0.40;0.20;;;13.30;99.90;;;;;;4932110;29;20706;-71
2022/05/28 06:38:50;;;;;;;0.40;0.30;;;13.30;99.90;;;;;;4914742;29;20413;-69
2022/05/28 06:41:16;;;;;;;0.40;0.40;;;13.30;99.90;;;;;;4932818;29;20395;-69
2022/05/28 06:43:42;;;;;;;0.40;0.20;;;13.50;99.90;;;;;;4923408;29;20411;-71
2022/05/28 06:46:09;;;;;;;0.50;0.50;;;13.50;99.90;;;;;;4927139;29;20396;-70
2022/05/28 06:48:38;;;;;;;0.40;0.30;;;13.50;99.90;;;;;;4928139;29;20422;-69
2022/05/28 06:51:05;;;;;;;0.40;0.20;;;13.70;99.90;;;;;;4933493;29;20388;-71
2022/05/28 06:53:40;;;;;;;0.40;0.32;;;13.70;99.90;;;;;;4934035;29;20422;-70
2022/05/28 06:56:07;;;;;;;0.40;0.20;;;13.70;99.90;;;;;;4925355;29;20411;-70
2022/05/28 06:58:34;;;;;;;0.40;0.30;;;13.70;99.90;;;;;;4931685;29;20745;-71
2022/05/28 07:01:01;;;;;;;0.40;0.20;;;13.60;99.90;;;;;;4930896;29;20403;-72
2022/05/28 07:03:28;;;;;;;0.40;0.20;;;13.70;99.90;;;;;;4928359;29;20431;-72
2022/05/28 07:05:55;;;;;;;0.40;0.20;;;13.80;99.90;;;;;;4945802;28;20393;-73
2022/05/28 07:08:21;;;;;;;0.40;0.30;;;13.80;99.90;;;;;;4935415;29;20456;-72
2022/05/28 07:10:53;;;;;;;0.40;0.40;;;13.90;99.90;;;;;;4936520;29;20413;-72
2022/05/28 07:13:21;;;;;;;0.40;0.20;;;14.00;99.90;;;;;;4944441;29;20417;-70
2022/05/28 07:15:47;;;;;;;1.10;0.90;;;14.10;99.90;;;;;;4940230;29;20412;-70
2022/05/28 07:18:13;;;;;;;0.40;0.20;;;14.10;99.90;;;;;;4949038;29;20466;-69
2022/05/28 07:20:39;;;;;;;0.40;0.20;;;14.20;99.90;;;;;;4933548;29;20407;-70
2022/05/28 07:23:11;;;;;;;0.40;0.20;;;14.00;99.90;;;;;;4922919;29;20457;-71
2022/05/28 07:25:40;;;;;;;0.40;0.20;;;14.00;99.90;;;;;;4926706;29;20585;-71
2022/05/28 07:28:25;;;;;;;0.40;0.20;;;14.20;99.90;;;;;;4924042;29;20395;-71
2022/05/28 07:30:56;;;;;;;0.40;0.30;;;14.10;99.90;;;;;;4922480;29;20899;-71
2022/05/28 07:33:24;;;;;;;0.40;0.20;;;14.20;99.90;;;;;;4927243;29;20424;-71
2022/05/28 07:35:50;;;;;;;1.30;0.70;;;14.30;99.90;;;;;;4921696;29;20411;-71
2022/05/28 07:38:16;;;;;;;0.40;0.20;;;14.20;99.90;;;;;;4923446;29;20884;-72
2022/05/28 07:40:41;;;;;;;0.40;0.20;;;14.40;99.90;;;;;;4926259;29;20405;-73
2022/05/28 07:43:08;;;;;;;0.40;0.20;;;14.50;99.90;;;;;;4923558;29;20433;-71
2022/05/28 07:45:39;;;;;;;0.40;0.20;;;14.50;99.90;;;;;;4922385;29;20511;-71
2022/05/28 07:48:05;;;;;;;0.40;0.20;;;14.40;99.90;;;;;;4924027;29;20445;-71
2022/05/28 07:50:31;;;;;;;0.40;0.20;;;14.40;99.90;;;;;;4928603;29;20411;-71
2022/05/28 07:52:57;;;;;;;0.40;0.20;;;14.20;99.90;;;;;;4927878;29;20856;-71
2022/05/28 07:55:24;;;;;;;0.40;0.20;;;14.20;99.90;;;;;;4921086;29;20423;-71
2022/05/28 07:57:49;;;;;;;0.40;0.20;;;14.40;99.90;;;;;;4922469;29;20452;-72
2022/05/28 08:00:16;;;;;;;0.40;0.40;;;14.50;99.90;;;;;;4920388;29;20411;-71
2022/05/28 08:02:42;;;;;;;0.40;0.20;;;14.60;97.60;;;;;;4929404;29;20415;-71
2022/05/28 08:05:08;;;;;;;0.40;0.20;;;14.70;96.20;;;;;;4928620;29;20470;-69
2022/05/28 08:07:34;;;;;;;0.40;0.30;;;14.90;96.60;;;;;;4924078;29;20887;-68
2022/05/28 08:10:00;;;;;;;0.40;0.20;;;14.90;95.30;;;;;;4930857;29;20473;-68
2022/05/28 08:12:26;;;;;;;0.40;0.20;;;14.90;94.50;;;;;;4926827;29;20431;-68
2022/05/28 08:14:52;;;;;;;0.40;0.20;;;14.80;94.20;;;;;;4925138;29;20406;-71
2022/05/28 08:17:17;;;;;;;0.40;0.28;;;14.70;94.70;;;;;;4925069;29;20486;-71
2022/05/28 08:19:43;;;;;;;0.40;0.20;;;14.80;96.50;;;;;;4924192;29;20917;-69
2022/05/28 08:24:53;;;;;;;0.40;0.30;;;14.70;94.70;;;;;;4918873;29;20442;-70
2022/05/28 08:27:19;;;;;;;0.40;0.20;;;14.70;94.00;;;;;;4932905;29;20506;-70
2022/05/28 08:29:44;;;;;;;0.40;0.20;;;14.80;95.10;;;;;;4920654;29;20536;-74
2022/05/28 08:32:12;;;;;;;0.40;0.20;;;15.10;92.80;;;;;;4931789;29;20396;-70
2022/05/28 08:34:38;;;;;;;0.40;0.40;;;15.20;92.70;;;;;;4921381;29;20444;-71
2022/05/28 08:37:04;;;;;;;0.40;0.20;;;15.40;93.20;;;;;;4931142;29;20423;-72
2022/05/28 08:39:30;;;;;;;0.40;0.20;;;15.50;93.00;;;;;;4925281;29;20397;-69
2022/05/28 08:41:57;;;;;;;0.40;0.20;;;15.50;92.10;;;;;;4930413;29;20391;-71
2022/05/28 08:44:29;;;;;;;1.20;0.70;;;15.50;91.70;;;;;;4936328;29;20387;-68
2022/05/28 08:47:29;;;;;;;0.40;0.20;;;15.40;91.10;;;;;;4934344;29;20427;-69
2022/05/28 08:49:55;;;;;;;0.40;0.20;;;15.30;91.20;;;;;;4935380;29;20391;-69
2022/05/28 08:52:21;;;;;;;0.40;0.20;;;15.20;90.00;;;;;;4934446;29;20420;-68
2022/05/28 08:54:59;;;;;;;0.40;0.20;;;15.30;88.40;;;;;;4935654;29;20478;-70
2022/05/28 08:58:03;;;;;;;0.40;0.20;;;15.40;86.70;;;;;;4933579;29;20446;-72
2022/05/28 09:01:02;;;;;;;0.40;0.30;;;15.50;87.60;;;;;;4917256;29;20472;-69
2022/05/28 09:03:36;;;;;;;0.40;0.20;;;15.40;86.60;;;;;;4917265;29;20428;-69
2022/05/28 09:06:10;;;;;;;0.40;0.20;;;15.50;86.90;;;;;;4915904;29;20406;-70
2022/05/28 09:08:45;;;;;;;0.40;0.20;;;15.50;85.60;;;;;;4917294;29;20421;-69
2022/05/28 09:11:33;;;;;;;0.40;0.20;;;15.40;83.80;;;;;;4916289;29;20393;-69
2022/05/28 09:14:08;;;;;;;0.40;0.20;;;15.40;83.70;;;;;;4916887;29;20412;-69
2022/05/28 09:16:37;;;;;;;0.40;0.20;;;15.50;81.70;;;;;;4916691;29;20437;-70
2022/05/28 09:19:07;;;;;;;0.40;0.30;;;15.60;82.30;;;;;;4915750;29;20476;-69
2022/05/28 09:21:33;;;;;;;0.40;0.20;;;15.80;70.90;;;;;;4916760;29;20402;-71
2022/05/28 09:24:06;;;;;;;0.40;0.20;;;15.80;75.20;;;;;;4915382;29;20461;-69
2022/05/28 09:26:50;;;;;;;0.40;0.22;;;15.80;76.80;;;;;;4916593;29;20802;-70
2022/05/28 09:29:21;;;;;;;0.40;0.20;;;15.80;78.50;;;;;;4916361;29;20476;-70
2022/05/28 09:31:58;;;;;;;0.40;0.22;;;15.90;78.00;;;;;;4916068;29;20421;-71
2022/05/28 09:34:48;;;;;;;0.40;0.20;;;16.00;72.70;;;;;;4916702;29;20425;-70
2022/05/28 09:37:42;;;;;;;0.40;0.20;;;15.70;72.30;;;;;;4916088;29;20552;-69
2022/05/28 09:40:24;;;;;;;0.40;0.30;;;16.00;71.50;;;;;;4898588;29;20413;-68
2022/05/28 09:42:56;;;;;;;0.40;0.20;;;16.10;69.40;;;;;;4915455;29;20393;-72
2022/05/28 09:45:30;;;;;;;0.40;0.20;;;16.20;67.90;;;;;;4916507;29;20398;-69
2022/05/28 09:47:56;;;;;;;0.40;0.20;;;16.30;71.80;;;;;;4898525;29;20409;-70
2022/05/28 09:50:27;;;;;;;0.40;0.20;;;16.50;68.00;;;;;;4916129;29;20389;-71
2022/05/28 09:55:54;;;;;;;0.40;0.20;;;16.40;65.70;;;;;;4915766;29;20492;-71
2022/05/28 09:58:22;;;;;;;0.40;0.20;;;16.30;65.80;;;;;;4916258;29;20710;-70
2022/05/28 10:00:49;;;;;;;0.40;0.30;;;16.30;67.20;;;;;;4915970;29;20400;-72
2022/05/28 10:06:18;;;;;;;0.40;0.30;;;16.10;63.40;;;;;;4915341;29;20885;-69
2022/05/28 10:08:44;;;;;;;0.40;0.20;;;16.10;64.70;;;;;;4916215;29;20832;-70
2022/05/28 10:11:15;;;;;;;0.40;0.20;;;16.30;64.10;;;;;;4915110;29;20469;-68
2022/05/28 10:13:56;;;;;;;0.40;0.20;;;16.00;62.30;;;;;;4915710;29;20500;-71
2022/05/28 10:16:26;;;;;;;0.40;0.20;;;16.20;63.00;;;;;;4915955;29;20400;-70
2022/05/28 10:18:55;;;;;;;0.40;0.20;;;16.10;63.90;;;;;;4914834;29;20513;-71
2022/05/28 10:21:32;;;;;;;0.40;0.20;;;16.30;63.80;;;;;;4916962;29;20466;-70
2022/05/28 10:24:13;;;;;;;0.40;0.30;;;16.50;63.80;;;;;;4924073;29;20426;-69
2022/05/28 10:26:44;;;;;;;0.40;0.20;;;16.50;63.00;;;;;;4934488;29;20404;-69
2022/05/28 10:29:17;;;;;;;0.40;0.20;;;16.50;62.90;;;;;;4930389;29;20392;-69
2022/05/28 10:31:49;;;;;;;0.40;0.30;;;16.70;62.20;;;;;;4933144;29;20403;-69
2022/05/28 10:34:31;;;;;;;0.40;0.20;;;16.60;61.30;;;;;;4933665;29;20418;-69
2022/05/28 10:37:12;;;;;;;0.40;0.20;;;16.50;61.80;;;;;;4933677;29;20395;-68
2022/05/28 10:39:39;;;;;;;0.40;0.20;;;16.60;62.10;;;;;;4934450;29;20411;-69
2022/05/28 10:42:08;;;;;;;0.40;0.20;;;16.70;62.70;;;;;;4932648;29;20483;-70
2022/05/28 10:44:34;;;;;;;0.40;0.20;;;16.90;60.70;;;;;;4934266;29;20395;-69
2022/05/28 10:47:36;;;;;;;0.40;0.20;;;16.70;59.70;;;;;;4929825;29;20397;-71
2022/05/28 10:50:08;;;;;;;0.40;0.20;;;17.00;60.80;;;;;;4927068;29;20412;-71
2022/05/28 10:52:49;;;;;;;0.40;0.20;;;17.00;59.00;;;;;;4933911;29;20805;-69
2022/05/28 10:55:23;;;;;;;0.40;0.20;;;17.40;58.50;;;;;;4931197;29;20427;-71
2022/05/28 10:58:00;;;;;;;0.40;0.20;;;16.90;58.50;;;;;;4929012;29;20404;-68
2022/05/28 11:00:39;;;;;;;0.40;0.20;;;16.90;58.60;;;;;;4915356;29;20392;-71
2022/05/28 11:03:05;;;;;;;0.40;0.20;;;16.90;59.10;;;;;;4914178;29;20405;-72
2022/05/28 11:06:08;;;;;;;0.40;0.20;;;17.30;57.40;;;;;;4914699;29;20465;-71
2022/05/28 11:09:05;;;;;;;0.40;0.20;;;17.20;58.10;;;;;;4915000;29;20495;-70
2022/05/28 11:11:56;;;;;;;0.40;0.20;;;17.40;57.30;;;;;;4925425;29;20402;-74
2022/05/28 11:14:30;;;;;;;0.40;0.20;;;17.40;57.40;;;;;;4906154;29;20916;-71
2022/05/28 11:17:15;;;;;;;0.40;0.20;;;17.60;58.90;;;;;;4919418;29;20447;-72
2022/05/28 11:20:02;;;;;;;0.40;0.20;;;18.30;59.50;;;;;;4916342;29;20433;-71
2022/05/28 11:22:49;;;;;;;0.40;0.20;;;18.60;56.90;;;;;;4913234;29;20887;-72
2022/05/28 11:25:25;;;;;;;0.40;0.20;;;18.80;57.40;;;;;;4913138;29;20432;-70
2022/05/28 11:27:56;;;;;;;0.40;0.20;;;18.70;54.10;;;;;;4914485;29;20487;-71
2022/05/28 11:30:42;;;;;;;0.40;0.20;;;18.40;53.80;;;;;;4914736;29;20393;-71
2022/05/28 11:33:13;;;;;;;0.40;0.30;;;19.30;59.60;;;;;;4913967;29;20468;-72
2022/05/28 11:36:10;;;;;;;0.40;0.20;;;19.60;53.70;;;;;;4914538;29;20447;-71
2022/05/28 11:38:50;;;;;;;0.40;0.30;;;19.30;55.60;;;;;;4898525;29;20413;-71
2022/05/28 11:41:48;;;;;;;0.40;0.20;;;19.20;57.70;;;;;;4913839;29;21005;-71
2022/05/28 11:44:26;;;;;;;0.40;0.30;;;19.40;58.00;;;;;;4925484;29;20426;-71
2022/05/28 11:46:54;;;;;;;0.40;0.20;;;19.50;55.90;;;;;;4922072;29;20411;-70
2022/05/28 11:52:32;;;;;;;0.40;0.20;;;19.60;53.20;;;;;;4927212;29;20415;-71
2022/05/28 11:55:28;;;;;;;0.40;0.20;;;19.10;51.60;;;;;;4931821;29;20415;-74
2022/05/28 11:58:05;;;;;;;0.40;0.20;;;19.50;49.40;;;;;;4920113;29;20405;-73
2022/05/28 12:00:36;;;;;;;0.40;0.30;;;19.20;52.20;;;;;;4932880;29;20737;-73
2022/05/28 12:03:07;;;;;;;0.40;0.20;;;19.50;53.90;;;;;;4936191;29;20813;-73
2022/05/28 12:05:44;;;;;;;0.40;0.20;;;18.80;54.00;;;;;;4936863;29;20403;-70
2022/05/28 12:08:24;;;;;;;0.40;0.20;;;18.60;57.40;;;;;;4935851;29;20403;-70
2022/05/28 12:10:58;;;;;;;0.40;0.20;;;18.00;58.50;;;;;;4936978;29;20406;-71
2022/05/28 12:13:49;;;;;;;0.40;0.20;;;18.10;58.60;;;;;;4919696;29;20419;-71
2022/05/28 12:16:18;;;;;;;0.40;0.20;;;18.50;62.70;;;;;;4916958;29;20407;-71
2022/05/28 12:19:13;;;;;;;0.40;0.30;;;18.10;59.50;;;;;;4917747;29;20418;-71
2022/05/28 12:21:41;;;;;;;0.40;0.30;;;18.80;61.50;;;;;;4920140;29;20893;-71
2022/05/28 12:24:28;;;;;;;0.40;0.20;;;18.60;59.50;;;;;;4916234;29;20910;-71
2022/05/28 12:29:45;;;;;;;0.40;0.20;;;19.00;60.80;;;;;;4929447;29;20422;-71
2022/05/28 12:32:13;;;;;;;0.40;0.20;;;19.00;59.10;;;;;;4935415;29;20922;-71
2022/05/28 12:35:01;;;;;;;0.40;0.20;;;18.80;61.00;;;;;;4936576;29;20398;-71
2022/05/28 12:37:34;;;;;;;0.40;0.20;;;18.60;60.30;;;;;;4936163;29;20408;-69
2022/05/28 12:40:08;;;;;;;0.40;0.30;;;18.10;60.50;;;;;;4935692;29;20425;-71
2022/05/28 12:42:34;;;;;;;0.40;0.20;;;18.70;61.20;;;;;;4936183;29;20419;-69
2022/05/28 12:45:23;;;;;;;0.40;0.30;;;19.50;59.50;;;;;;4934659;29;20395;-71
2022/05/28 12:47:49;;;;;;;0.40;0.20;;;20.10;56.30;;;;;;4935948;29;20388;-71
2022/05/28 12:50:30;;;;;;;0.40;0.20;;;20.70;57.90;;;;;;4935503;29;20415;-69
2022/05/28 12:53:11;;;;;;;0.40;0.30;;;21.20;54.30;;;;;;4932052;29;20506;-71
2022/05/28 12:55:39;;;;;;;0.40;0.20;;;21.00;57.60;;;;;;4928990;29;20421;-68
2022/05/28 12:58:22;;;;;;;0.40;0.20;;;19.60;54.20;;;;;;4927693;29;20408;-70
2022/05/28 13:00:52;;;;;;;0.40;0.30;;;20.20;56.30;;;;;;4931045;29;20396;-73
2022/05/28 13:03:20;;;;;;;0.40;0.20;;;21.30;57.70;;;;;;4934652;29;20423;-70
2022/05/28 13:05:52;;;;;;;0.40;0.20;;;21.50;52.50;;;;;;4935921;29;21184;-72
2022/05/28 13:08:25;;;;;;;0.40;0.30;;;22.00;54.10;;;;;;4934804;29;20759;-73
2022/05/28 13:11:05;;;;;;;0.40;0.20;;;21.90;55.20;;;;;;4935785;29;20427;-70
2022/05/28 13:13:40;;;;;;;0.40;0.30;;;21.90;50.80;;;;;;4935531;29;20927;-73
2022/05/28 13:16:24;;;;;;;0.40;0.30;;;21.60;52.20;;;;;;4933894;29;20403;-72
2022/05/28 13:19:13;;;;;;;0.40;0.20;;;20.40;54.60;;;;;;4935937;29;20450;-72
2022/05/28 13:22:08;;;;;;;0.40;0.20;;;20.00;55.10;;;;;;4935554;29;20498;-72